Time;durP1;ratioP1;P1;durP2;ratioP2;P2;SDS_P1;SDS_P2;PMS_P1;PMS_P2;Temp;Humidity;BMP_temperature;BMP_pressure;BME280_temperature;BME280_humidity;BME280_pressure;Samples;Min_cycle;Max_cycle;Signal;HPM_P1;HPM_P2
2022/01/08 00:04:35;;;;;;;;;;;1.30;99.90;;;0.22;100.00;95357.84;10326479;28;1893;-70
2022/01/08 00:09:39;;;;;;;;;;;1.30;99.90;;;0.20;100.00;95367.03;10341901;28;2040;-71
2022/01/08 00:14:42;;;;;;;;;;;1.20;99.90;;;0.15;100.00;95362.38;10338812;28;1975;-72
2022/01/08 00:19:45;;;;;;;;;;;1.30;99.90;;;0.17;100.00;95352.38;10371452;28;1803;-70
2022/01/08 00:24:52;;;;;;;;;;;1.20;99.90;;;0.20;100.00;95348.53;10350903;28;1792;-69
2022/01/08 00:29:55;;;;;;;;;;;1.20;99.90;;;0.18;100.00;95345.28;10340178;28;1887;-69
2022/01/08 00:34:58;;;;;;;;;;;1.20;99.90;;;-0.08;100.00;95331.28;10356907;28;1914;-69
2022/01/08 00:40:02;;;;;;;;;;;1.10;99.90;;;-0.11;100.00;95323.00;10359832;28;1924;-69
2022/01/08 00:45:05;;;;;;;;;;;1.00;99.90;;;-0.25;100.00;95313.56;10356917;28;1900;-70
2022/01/08 00:50:08;;;;;;;;;;;0.90;99.90;;;-0.31;100.00;95307.34;10362783;28;1908;-69
2022/01/08 00:55:12;;;;;;;;;;;0.90;99.90;;;-0.25;100.00;95308.28;10361805;28;1951;-70
2022/01/08 01:00:15;;;;;;;;;;;0.90;99.90;;;-0.29;100.00;95306.09;10367470;28;1859;-70
2022/01/08 01:05:19;;;;;;;;;;;0.80;99.90;;;-0.32;100.00;95292.50;10350548;28;1962;-69
2022/01/08 01:10:22;;;;;;;;;;;0.80;99.90;;;-0.42;100.00;95286.91;10353977;28;1844;-68
2022/01/08 01:15:25;;;;;;;;;;;0.80;99.90;;;-0.51;100.00;95281.09;10347481;28;1887;-68
2022/01/08 01:20:28;;;;;;;;;;;0.80;99.90;;;-0.53;100.00;95274.41;10365649;28;1809;-69
2022/01/08 01:25:35;;;;;;;;;;;0.70;99.90;;;-0.55;100.00;95264.88;10338744;28;1834;-69
2022/01/08 01:31:02;;;;;;;;;;;0.60;99.90;;;-0.62;100.00;95256.22;10308662;28;1918;-70
2022/01/08 01:41:37;;;;;;;;;;;0.60;99.90;;;-0.87;100.00;95239.56;10340955;28;1938;-71
2022/01/08 01:52:02;;;;;;;;;;;0.30;99.90;;;-1.07;100.00;95226.53;10327321;28;1978;-70
2022/01/08 01:57:05;;;;;;;;;;;0.30;99.90;;;-1.18;100.00;95209.56;10308068;28;1900;-70
2022/01/08 02:02:09;;;;;;;;;;;0.10;99.90;;;-1.26;100.00;95201.13;10326999;28;1992;-70
2022/01/08 02:07:12;;;;;;;;;;;0.00;99.90;;;-1.29;100.00;95193.63;10321528;28;2019;-70
2022/01/08 02:12:17;;;;;;;;;;;0.00;99.90;;;-1.29;100.00;95197.06;10332205;28;1996;-70
2022/01/08 02:17:23;;;;;;;;;;;;;;;-1.27;100.00;95189.75;10323192;28;1968;-70
2022/01/08 02:22:27;;;;;;;;;;;;;;;-1.43;100.00;95177.09;10325896;28;1944;-69
2022/01/08 02:27:31;;;;;;;;;;;;;;;-1.52;100.00;95170.47;10341328;28;1905;-69
2022/01/08 02:32:35;;;;;;;;;;;;;;;-1.48;100.00;95164.53;10328341;28;2015;-69
2022/01/08 02:37:39;;;;;;;;;;;;;;;-1.47;100.00;95157.44;10312073;28;1892;-70
2022/01/08 02:42:51;;;;;;;;;;;;;;;-1.41;100.00;95146.03;10328492;28;1906;-71
2022/01/08 02:47:54;;;;;;;;;;;;;;;-1.51;100.00;95135.19;10323831;28;1890;-71
2022/01/08 02:52:58;;;;;;;;;;;;;;;-1.56;100.00;95127.09;10325565;28;2130;-70
2022/01/08 02:58:02;;;;;;;;;;;-0.50;99.90;;;-1.58;100.00;95129.16;10331826;28;1187;-70
2022/01/08 03:03:06;;;;;;;;;;;-0.50;99.90;;;-1.66;100.00;95117.00;10353106;28;1377;-69
2022/01/08 03:08:09;;;;;;;;;;;-0.40;99.90;;;-1.68;100.00;95104.06;10343861;28;1570;-69
2022/01/08 03:13:12;;;;;;;;;;;-0.50;99.90;;;-1.72;100.00;95089.72;10338852;28;1926;-68
2022/01/08 03:18:16;;;;;;;;;;;-0.60;99.90;;;-1.60;100.00;95091.63;10366412;28;1453;-69
2022/01/08 03:23:20;;;;;;;;;;;-0.50;99.90;;;-1.60;100.00;95083.72;10357751;28;1655;-70
2022/01/08 03:28:23;;;;;;;;;;;-0.50;99.90;;;-1.73;100.00;95080.19;10353561;28;1292;-68
2022/01/08 03:33:27;;;;;;;;;;;-0.50;99.90;;;-1.78;100.00;95071.28;10344729;28;1914;-69
2022/01/08 03:38:29;;;;;;;;;;;-0.50;99.90;;;-1.82;100.00;95060.38;10355291;28;1264;-69
2022/01/08 03:43:32;;;;;;;;;;;-0.50;99.90;;;-1.87;100.00;95059.41;10345423;28;1485;-69
2022/01/08 03:48:46;;;;;;;;;;;-0.60;99.90;;;-1.78;100.00;95051.06;10361822;28;1378;-69
2022/01/08 03:53:49;;;;;;;;;;;-0.60;99.90;;;-1.73;100.00;95048.56;10362597;28;1956;-69
2022/01/08 03:58:52;;;;;;;;;;;-0.60;99.90;;;-1.63;100.00;95043.63;10355155;28;1856;-70
2022/01/08 04:03:56;;;;;;;;;;;-0.60;99.90;;;-1.60;100.00;95036.28;10367278;28;1780;-68
2022/01/08 04:09:00;;;;;;;;;;;-0.50;99.90;;;-1.60;100.00;95023.94;10365716;28;1806;-68
2022/01/08 04:14:03;;;;;;;;;;;-0.60;99.90;;;-1.61;100.00;95014.41;10379756;23;2473;-70
2022/01/08 04:19:07;;;;;;;;;;;-0.50;99.90;;;-1.60;100.00;95009.94;10419533;28;1839;-70
2022/01/08 04:24:10;;;;;;;;;;;-0.50;99.90;;;-1.71;100.00;95009.66;10407894;28;1884;-71
2022/01/08 04:29:13;;;;;;;;;;;-0.50;99.90;;;-1.67;100.00;94995.00;10421248;28;1900;-71
2022/01/08 04:34:16;;;;;;;;;;;-0.50;99.90;;;-1.49;100.00;94991.59;10419373;28;1977;-71
2022/01/08 04:39:19;;;;;;;;;;;-0.50;99.90;;;-1.42;100.00;94986.25;10414703;28;1865;-72
2022/01/08 04:44:23;;;;;;;;;;;-0.40;99.90;;;-1.39;100.00;94985.84;10416768;28;1886;-71
2022/01/08 04:49:26;;;;;;;;;;;-0.30;99.90;;;-1.44;100.00;94981.22;10424150;28;1844;-71
2022/01/08 04:54:29;;;;;;;;;;;-0.30;99.90;;;-1.33;100.00;94979.69;10418467;28;1918;-71
2022/01/08 04:59:33;;;;;;;;;;;-0.40;99.90;;;-1.25;100.00;94979.41;10411404;28;1840;-71
2022/01/08 05:04:36;;;;;;;;;;;-0.20;99.90;;;-1.11;100.00;94993.25;10419625;28;1816;-71
2022/01/08 05:09:40;;;;;;;;;;;-0.20;99.90;;;-1.04;100.00;95030.91;10412924;28;1898;-72
2022/01/08 05:14:44;;;;;;;;;;;0.00;99.90;;;-1.03;100.00;95061.53;10423072;28;1969;-70
2022/01/08 05:19:50;;;;;;;;;;;-0.10;99.90;;;-0.95;100.00;95058.63;10421748;28;1807;-70
2022/01/08 05:24:53;;;;;;;;;;;-0.10;99.90;;;-0.81;100.00;95038.16;10417763;28;1860;-71
2022/01/08 05:29:57;;;;;;;;;;;0.10;99.90;;;-0.72;100.00;95026.28;10419676;28;1929;-70
2022/01/08 05:35:00;;;;;;;;;;;0.10;99.90;;;-0.57;100.00;95008.22;10420109;28;1969;-71
2022/01/08 05:40:03;;;;;;;;;;;0.40;99.90;;;-0.47;100.00;95009.53;10420022;28;1803;-71
2022/01/08 05:45:06;;;;;;;;;;;0.40;99.90;;;-0.44;100.00;94999.34;10416032;28;1822;-71
2022/01/08 05:50:09;;;;;;;;;;;0.40;99.90;;;-0.34;100.00;95007.50;10413976;28;1936;-71
2022/01/08 05:55:12;;;;;;;;;;;;;;;-0.21;100.00;95014.44;10416069;28;1954;-71
2022/01/08 06:00:16;;;;;;;;;;;0.60;99.90;;;-0.18;100.00;95023.78;10406672;28;1983;-71
2022/01/08 06:05:19;;;;;;;;;;;0.80;99.90;;;-0.12;100.00;95036.88;10419319;28;1756;-71
2022/01/08 06:10:22;;;;;;;;;;;0.80;99.90;;;-0.15;100.00;95025.94;10424361;28;1890;-71
2022/01/08 06:15:25;;;;;;;;;;;0.80;99.90;;;-0.26;100.00;95016.94;10408821;28;1997;-71
2022/01/08 06:20:29;;;;;;;;;;;0.80;99.90;;;-0.23;100.00;95005.13;10400938;28;1889;-71
2022/01/08 06:25:35;;;;;;;;;;;0.60;99.90;;;-0.14;100.00;94998.50;10399149;28;1879;-71
2022/01/08 06:30:38;;;;;;;;;;;0.80;99.90;;;-0.15;100.00;95007.47;10399747;28;1933;-71
2022/01/08 06:35:41;;;;;;;;;;;0.80;99.90;;;-0.13;100.00;95006.19;10392503;28;1981;-71
2022/01/08 06:40:44;;;;;;;;;;;0.80;99.90;;;-0.09;100.00;95011.84;10396408;28;1913;-72
2022/01/08 06:45:48;;;;;;;;;;;0.90;99.90;;;-0.07;100.00;95015.84;10396230;28;1861;-71
2022/01/08 06:50:51;;;;;;;;;;;0.90;99.90;;;-0.02;100.00;95008.06;10392439;28;1868;-71
2022/01/08 06:55:54;;;;;;;;;;;0.90;99.90;;;0.07;100.00;95008.56;10387298;28;1988;-72
2022/01/08 07:00:57;;;;;;;;;;;1.00;99.90;;;0.09;100.00;95003.03;10397475;28;1916;-72
2022/01/08 07:06:00;;;;;;;;;;;1.10;99.90;;;0.16;100.00;95009.81;10393099;28;1903;-72
2022/01/08 07:11:03;;;;;;;;;;;1.10;99.90;;;0.22;100.00;95008.91;10391647;28;1841;-72
2022/01/08 07:16:06;;;;;;;;;;;1.20;99.90;;;0.31;100.00;95011.22;10395990;28;1979;-72
2022/01/08 07:21:09;;;;;;;;;;;1.30;99.90;;;0.39;99.49;95034.72;10400260;28;1840;-73
2022/01/08 07:26:13;;;;;;;;;;;;;;;0.32;100.00;95037.47;10389317;28;1828;-72
2022/01/08 07:31:17;;;;;;;;;;;;;;;0.51;99.14;95046.09;10398329;28;1871;-72
2022/01/08 07:36:22;;;;;;;;;;;;;;;0.57;100.00;95047.00;10396967;28;1972;-72
2022/01/08 07:41:25;;;;;;;;;;;;;;;0.57;100.00;95036.44;10397426;28;1860;-72
2022/01/08 07:46:29;;;;;;;;;;;;;;;0.58;100.00;95044.16;10394256;28;2332;-71
2022/01/08 07:51:34;;;;;;;;;;;;;;;0.69;100.00;95055.75;10414201;28;1884;-72
2022/01/08 07:56:37;;;;;;;;;;;;;;;0.63;100.00;95056.66;10429999;28;1910;-71
2022/01/08 08:01:41;;;;;;;;;;;;;;;0.51;100.00;95052.19;10400029;28;1844;-71
2022/01/08 08:06:45;;;;;;;;;;;;;;;0.40;100.00;95047.69;10400429;28;1872;-71
2022/01/08 08:11:48;;;;;;;;;;;;;;;0.24;100.00;95069.47;10406497;28;1869;-71
2022/01/08 08:16:51;;;;;;;;;;;;;;;0.16;100.00;95072.47;10411454;28;1971;-73
2022/01/08 08:21:55;;;;;;;;;;;;;;;0.14;100.00;95075.34;10411138;28;2031;-72
2022/01/08 08:26:58;;;;;;;;;;;;;;;0.18;100.00;95089.69;10407878;28;1830;-72
2022/01/08 08:32:02;;;;;;;;;;;;;;;0.19;100.00;95085.22;10406570;28;1974;-73
2022/01/08 08:37:05;;;;;;;;;;;;;;;0.30;100.00;95089.72;10406919;28;1977;-73
2022/01/08 08:42:09;;;;;;;;;;;;;;;0.38;100.00;95094.72;10416035;28;1808;-74
2022/01/08 08:47:13;;;;;;;;;;;;;;;0.44;100.00;95096.41;10419561;28;1868;-75
2022/01/08 08:52:16;;;;;;;;;;;;;;;0.59;100.00;95098.66;10417749;28;1876;-76
2022/01/08 08:57:20;;;;;;;;;;;;;;;0.69;100.00;95104.19;10412788;28;1914;-75
2022/01/08 09:02:23;;;;;;;;;;;;;;;0.83;100.00;95107.44;10417127;28;1860;-73
2022/01/08 09:07:28;;;;;;;;;;;;;;;1.03;100.00;95125.63;10417554;28;1805;-73
2022/01/08 09:12:32;;;;;;;;;;;;;;;1.06;100.00;95128.59;10418300;28;1922;-72
2022/01/08 09:17:35;;;;;;;;;;;;;;;1.12;100.00;95149.91;10413723;28;1825;-72
2022/01/08 09:22:39;;;;;;;;;;;;;;;1.10;100.00;95138.75;10422083;28;1851;-72
2022/01/08 09:27:42;;;;;;;;;;;;;;;1.06;100.00;95184.19;10419826;28;1825;-73
2022/01/08 09:32:46;;;;;;;;;;;;;;;1.01;100.00;95196.47;10413828;28;1910;-71
2022/01/08 09:37:50;;;;;;;;;;;;;;;0.67;100.00;95203.31;10414163;28;1842;-72
2022/01/08 09:42:53;;;;;;;;;;;;;;;0.69;100.00;95217.13;10425004;28;1840;-71
2022/01/08 09:47:57;;;;;;;;;;;;;;;0.68;100.00;95221.59;10438222;28;2301;-71
2022/01/08 09:53:01;;;;;;;;;;;;;;;0.67;100.00;95229.78;10415461;28;1991;-72
2022/01/08 09:58:04;;;;;;;;;;;;;;;0.71;100.00;95238.88;10421371;28;2016;-72
2022/01/08 10:03:08;;;;;;;;;;;;;;;0.74;100.00;95243.72;10431848;28;1833;-72
2022/01/08 10:08:12;;;;;;;;;;;;;;;0.76;100.00;95252.22;10419780;28;1903;-71
2022/01/08 10:13:15;;;;;;;;;;;;;;;0.70;100.00;95263.69;10417625;28;1973;-71
2022/01/08 10:18:19;;;;;;;;;;;;;;;0.69;100.00;95268.19;10419945;23;1844;-78
2022/01/08 10:23:22;;;;;;;;;;;;;;;0.84;98.87;95278.38;10407923;28;1976;-77
2022/01/08 10:28:26;;;;;;;;;;;;;;;0.95;97.76;95288.19;10407807;28;1885;-77
2022/01/08 10:33:30;;;;;;;;;;;;;;;0.95;97.46;95322.59;10395280;28;1967;-77
2022/01/08 10:38:40;;;;;;;;;;;;;;;0.92;96.14;95309.81;10395595;23;2044;-74
2022/01/08 10:43:45;;;;;;;;;;;;;;;1.07;96.53;95322.63;10373589;28;1849;-74
2022/01/08 10:48:48;;;;;;;;;;;;;;;1.10;95.21;95331.97;10374771;28;2041;-72
2022/01/08 10:53:52;;;;;;;;;;;;;;;1.02;94.48;95347.16;10375926;28;1973;-72
2022/01/08 10:58:55;;;;;;;;;;;;;;;1.32;93.10;95341.81;10375346;28;1905;-72
2022/01/08 11:03:59;;;;;;;;;;;;;;;1.58;90.21;95340.59;10377855;28;1837;-72
2022/01/08 11:09:02;;;;;;;;;;;;;;;1.69;90.62;95333.72;10372511;28;1803;-72
2022/01/08 11:14:08;;;;;;;;;;;;;;;1.67;86.34;95335.81;10370100;28;1964;-72
2022/01/08 11:19:11;;;;;;;;;;;;;;;1.80;87.39;95348.84;10373946;28;1798;-72
2022/01/08 11:24:14;;;;;;;;;;;;;;;1.95;87.52;95352.88;10365800;28;1861;-73
2022/01/08 11:29:18;;;;;;;;;;;;;;;1.75;88.84;95358.50;10370776;28;1806;-73
2022/01/08 11:34:22;;;;;;;;;;;;;;;1.78;87.61;95360.69;10370415;28;2020;-73
2022/01/08 11:39:26;;;;;;;;;;;;;;;1.86;85.72;95352.41;10374243;28;2207;-72
2022/01/08 11:44:29;;;;;;;;;;;;;;;1.90;84.89;95356.22;10368624;28;1845;-71
2022/01/08 11:49:33;;;;;;;;;;;;;;;1.92;85.30;95356.81;10370467;28;1874;-72
2022/01/08 11:54:36;;;;;;;;;;;;;;;1.89;86.79;95341.34;10367883;28;2280;-72
2022/01/08 11:59:40;;;;;;;;;;;;;;;1.54;86.28;95355.38;10368870;28;1833;-71
2022/01/08 12:04:46;;;;;;;;;;;;;;;1.76;86.21;95357.47;10373198;28;1882;-72
2022/01/08 12:09:50;;;;;;;;;;;;;;;2.08;86.71;95350.81;10377506;28;1918;-72
2022/01/08 12:14:54;;;;;;;;;;;;;;;1.76;85.28;95357.47;10374392;28;1898;-72
2022/01/08 12:19:57;;;;;;;;;;;;;;;1.60;88.22;95353.66;10378840;28;1892;-72
2022/01/08 12:25:03;;;;;;;;;;;;;;;1.83;86.79;95342.25;10373800;28;2048;-74
2022/01/08 12:30:06;;;;;;;;;;;;;;;1.33;87.79;95343.44;10379477;28;2019;-72
2022/01/08 12:35:10;;;;;;;;;;;;;;;1.24;91.88;95346.63;10378155;28;1977;-72
2022/01/08 12:40:14;;;;;;;;;;;;;;;1.21;89.12;95334.66;10376659;28;1891;-72
2022/01/08 12:45:20;;;;;;;;;;;;;;;1.18;86.88;95329.81;10376364;28;2039;-72
2022/01/08 12:50:23;;;;;;;;;;;;;;;1.12;86.62;95333.34;10373560;28;1857;-72
2022/01/08 12:55:27;;;;;;;;;;;;;;;0.98;86.81;95324.78;10377399;28;1989;-73
2022/01/08 13:00:30;;;;;;;;;;;;;;;0.78;86.50;95327.72;10375656;28;1817;-72
2022/01/08 13:05:34;;;;;;;;;;;;;;;0.77;87.68;95327.94;10381609;28;1893;-72
2022/01/08 13:10:37;;;;;;;;;;;;;;;1.16;87.30;95309.91;10373699;28;1902;-73
2022/01/08 13:15:41;;;;;;;;;;;;;;;1.71;83.26;95313.09;10375307;28;1977;-74
2022/01/08 13:20:45;;;;;;;;;;;;;;;1.73;81.47;95295.16;10381365;28;1855;-72
2022/01/08 13:25:49;;;;;;;;;;;;;;;1.77;82.10;95309.53;10383493;28;1892;-73
2022/01/08 13:30:52;;;;;;;;;;;;;;;1.88;82.33;95289.38;10376040;28;2000;-71
2022/01/08 13:35:56;;;;;;;;;;;;;;;1.67;82.53;95305.84;10375508;28;1906;-70
2022/01/08 13:40:59;;;;;;;;;;;;;;;1.83;83.01;95295.34;10390981;28;1912;-71
2022/01/08 13:46:03;;;;;;;;;;;;;;;1.84;80.48;95290.88;10376462;28;2080;-70
2022/01/08 13:51:06;;;;;;;;;;;;;;;1.43;79.01;95284.63;10389682;28;1590;-70
2022/01/08 13:56:09;;;;;;;;;;;;;;;0.99;80.79;95293.84;10383145;28;1903;-69
2022/01/08 14:01:13;;;;;;;;;;;;;;;0.76;79.99;95287.44;10378783;28;1997;-72
2022/01/08 14:06:16;;;;;;;;;;;;;;;0.87;81.38;95275.28;10379874;28;1881;-70
2022/01/08 14:11:19;;;;;;;;;;;;;;;0.98;80.30;95269.22;10375394;28;1882;-70
2022/01/08 14:16:23;;;;;;;;;;;;;;;1.12;77.76;95269.03;10374906;28;1910;-71
2022/01/08 14:21:26;;;;;;;;;;;;;;;1.15;76.67;95261.44;10384173;28;2016;-70
2022/01/08 14:26:30;;;;;;;;;;;;;;;1.24;76.46;95240.72;10375426;28;2217;-69
2022/01/08 14:31:33;;;;;;;;;;;;;;;1.18;76.22;95239.78;10369284;28;1798;-70
2022/01/08 14:36:36;;;;;;;;;;;;;;;0.83;77.11;95231.78;10368958;28;1975;-70
2022/01/08 14:41:42;;;;;;;;;;;;;;;0.68;76.92;95220.78;10369716;28;1794;-70
2022/01/08 14:46:45;;;;;;;;;;;;;;;0.56;78.93;95214.66;10365294;28;1887;-68
2022/01/08 14:51:49;;;;;;;;;;;;;;;0.56;79.95;95210.16;10364815;28;1841;-69
2022/01/08 14:56:52;;;;;;;;;;;;;;;0.78;80.20;95197.25;10367083;28;1902;-70
2022/01/08 15:01:55;;;;;;;;;;;;;;;0.91;79.74;95186.47;10361458;28;1875;-70
2022/01/08 15:07:00;;;;;;;;;;;;;;;0.79;82.59;95177.69;10374806;28;1790;-70
2022/01/08 15:12:03;;;;;;;;;;;;;;;0.65;81.60;95174.47;10363748;28;1993;-69
2022/01/08 15:17:07;;;;;;;;;;;;;;;0.49;81.66;95167.16;10370464;28;2024;-70
2022/01/08 15:22:11;;;;;;;;;;;;;;;0.25;83.48;95155.69;10375959;28;1810;-69
2022/01/08 15:27:14;;;;;;;;;;;;;;;0.14;84.79;95148.53;10364215;28;1985;-68
2022/01/08 15:32:17;;;;;;;;;;;;;;;-0.01;86.86;95136.50;10375762;28;1874;-70
2022/01/08 15:37:21;;;;;;;;;;;;;;;-0.04;86.66;95136.16;10374094;28;2067;-69
2022/01/08 15:42:24;;;;;;;;;;;;;;;-0.17;87.22;95126.56;10364723;28;1849;-68
2022/01/08 15:47:27;;;;;;;;;;;;;;;-0.26;89.01;95122.59;10368294;28;1874;-70
2022/01/08 15:52:31;;;;;;;;;;;;;;;-0.46;90.94;95116.75;10358777;28;1881;-71
2022/01/08 15:57:34;;;;;;;;;;;;;;;-0.59;93.04;95123.78;10367351;28;1910;-71
2022/01/08 16:02:38;;;;;;;;;;;;;;;-0.55;91.15;95114.41;10364572;28;1893;-70
2022/01/08 16:07:41;;;;;;;;;;;;;;;-0.66;92.13;95107.22;10369612;28;1817;-68
2022/01/08 16:12:45;;;;;;;;;;;;;;;-0.67;93.04;95099.53;10387970;28;1921;-69
2022/01/08 16:17:48;;;;;;;;;;;;;;;-0.83;94.75;95101.72;10371071;28;1918;-69
2022/01/08 16:22:52;;;;;;;;;;;;;;;-0.93;96.00;95088.22;10364454;28;2020;-70
2022/01/08 16:27:55;;;;;;;;;;;;;;;-1.02;96.55;95081.59;10365133;28;1854;-73
2022/01/08 16:32:59;;;;;;;;;;;;;;;-1.10;98.36;95066.88;10368617;28;1862;-69
2022/01/08 16:38:02;;;;;;;;;;;;;;;-1.09;98.75;95060.56;10379143;28;1977;-70
2022/01/08 16:43:06;;;;;;;;;;;;;;;-1.00;97.92;95053.19;10369858;28;1897;-71
2022/01/08 16:48:09;;;;;;;;;;;;;;;-1.00;98.68;95047.09;10376767;28;1872;-70
2022/01/08 16:53:13;;;;;;;;;;;;;;;-1.00;99.19;95031.28;10367991;28;2020;-69
2022/01/08 16:58:16;;;;;;;;;;;;;;;-1.00;98.86;95018.09;10366278;28;1977;-70
2022/01/08 17:03:19;;;;;;;;;;;;;;;-1.09;99.08;95013.06;10361917;28;1889;-70
2022/01/08 17:08:23;;;;;;;;;;;;;;;-1.06;98.69;95011.06;10371044;28;2007;-70
2022/01/08 17:13:29;;;;;;;;;;;;;;;-1.13;99.06;95003.22;10368550;28;1877;-71
2022/01/08 17:18:33;;;;;;;;;;;;;;;-0.92;97.57;94991.41;10368075;28;2008;-70
2022/01/08 17:23:36;;;;;;;;;;;;;;;-0.73;96.44;94979.78;10361885;28;1837;-72
2022/01/08 17:28:40;;;;;;;;;;;;;;;-0.47;95.36;94948.78;10365834;28;2040;-70
2022/01/08 17:33:43;;;;;;;;;;;;;;;-0.35;92.73;94949.63;10382825;28;1786;-71
2022/01/08 17:38:47;;;;;;;;;;;;;;;-0.25;92.30;94936.72;10367500;28;1918;-70
2022/01/08 17:43:50;;;;;;;;;;;;;;;-0.08;91.70;94932.34;10378533;28;1205;-70
2022/01/08 17:48:54;;;;;;;;;;;;;;;0.05;91.90;94928.69;10374161;28;2119;-70
2022/01/08 17:53:57;;;;;;;;;;;;;;;0.05;91.75;94914.69;10370299;28;1831;-71
2022/01/08 17:59:02;;;;;;;;;;;;;;;0.02;92.87;94917.78;10368637;28;1977;-71
2022/01/08 18:04:05;;;;;;;;;;;;;;;0.09;91.45;94907.91;10371756;28;2084;-70
2022/01/08 18:09:09;;;;;;;;;;;;;;;0.11;92.17;94900.56;10364402;28;1322;-71
2022/01/08 18:14:13;;;;;;;;;;;;;;;0.12;91.54;94896.88;10372999;28;1394;-70
2022/01/08 18:19:16;;;;;;;;;;;;;;;0.24;90.01;94879.16;10387062;28;1893;-71
2022/01/08 18:24:19;;;;;;;;;;;;;;;0.24;88.20;94872.03;10385097;28;1314;-70
2022/01/08 18:29:23;;;;;;;;;;;;;;;0.22;90.87;94870.69;10376478;28;1345;-71
2022/01/08 18:34:26;;;;;;;;;;;;;;;0.22;89.02;94863.56;10380122;28;1679;-72
2022/01/08 18:39:29;;;;;;;;;;;;;;;0.25;89.52;94855.19;10377853;28;1942;-70
2022/01/08 18:44:33;;;;;;;;;;;;;;;0.32;87.39;94844.47;10367019;28;1375;-71
2022/01/08 18:49:38;;;;;;;;;;;;;;;0.26;88.12;94832.19;10367804;28;1594;-70
2022/01/08 18:54:43;;;;;;;;;;;;;;;0.29;86.38;94823.78;10370627;28;1449;-71
2022/01/08 18:59:46;;;;;;;;;;;;;;;0.29;86.64;94810.56;10366400;28;1918;-72
2022/01/08 19:04:50;;;;;;;;;;;;;;;0.40;84.96;94796.53;10371784;28;1528;-71
2022/01/08 19:09:54;;;;;;;;;;;;;;;0.32;85.37;94786.31;10372062;28;1461;-72
2022/01/08 19:14:57;;;;;;;;;;;;;;;0.31;85.81;94773.31;10369308;28;1516;-71
2022/01/08 19:20:00;;;;;;;;;;;;;;;0.31;85.45;94760.09;10375489;28;1938;-72
2022/01/08 19:25:04;;;;;;;;;;;;;;;0.32;83.46;94751.13;10378020;28;1491;-72
2022/01/08 19:30:07;;;;;;;;;;;;;;;0.29;84.67;94738.41;10373511;28;1727;-71
2022/01/08 19:35:11;;;;;;;;;;;;;;;0.20;84.00;94717.63;10363651;28;1892;-71
2022/01/08 19:40:14;;;;;;;;;;;;;;;0.10;84.14;94703.41;10361538;28;1923;-71
2022/01/08 19:45:18;;;;;;;;;;;;;;;0.17;84.46;94693.50;10370618;28;2367;-71
2022/01/08 19:50:22;;;;;;;;;;;;;;;0.10;83.75;94682.25;10369588;28;1517;-72
2022/01/08 19:55:26;;;;;;;;;;;;;;;0.06;83.10;94667.91;10367999;28;1911;-71
2022/01/08 20:00:29;;;;;;;;;;;;;;;0.09;83.71;94656.88;10366384;28;1801;-72
2022/01/08 20:05:33;;;;;;;;;;;;;;;0.07;84.42;94645.75;10376757;28;1300;-70
2022/01/08 20:10:37;;;;;;;;;;;;;;;0.14;82.92;94641.94;10367379;28;1899;-72
2022/01/08 20:15:41;;;;;;;;;;;;;;;0.13;82.28;94621.03;10366487;28;1891;-71
2022/01/08 20:20:45;;;;;;;;;;;;;;;0.19;82.62;94622.69;10371488;28;1498;-72
2022/01/08 20:25:49;;;;;;;;;;;;;;;0.26;80.89;94607.53;10364895;28;1382;-73
2022/01/08 20:30:53;;;;;;;;;;;;;;;0.29;82.47;94600.94;10363555;28;1929;-71
2022/01/08 20:35:56;;;;;;;;;;;;;;;0.34;81.28;94593.91;10375040;28;1910;-71
2022/01/08 20:41:02;;;;;;;;;;;;;;;0.38;81.61;94584.47;10376358;28;1628;-72
2022/01/08 20:46:06;;;;;;;;;;;;;;;0.31;81.22;94572.44;10377852;28;1837;-71
2022/01/08 20:51:09;;;;;;;;;;;;;;;0.31;82.52;94567.13;10381848;28;1413;-72
2022/01/08 20:56:12;;;;;;;;;;;;;;;0.39;81.20;94558.84;10376323;28;1911;-72
2022/01/08 21:01:16;;;;;;;;;;;;;;;0.41;81.13;94549.63;10372512;28;1457;-72
2022/01/08 21:06:19;;;;;;;;;;;;;;;0.57;80.79;94539.25;10376476;28;1759;-71
2022/01/08 21:11:23;;;;;;;;;;;;;;;0.63;79.25;94511.84;10376619;28;1986;-72
2022/01/08 21:16:26;;;;;;;;;;;;;;;0.52;79.19;94489.78;10374966;28;2020;-74
2022/01/08 21:21:30;;;;;;;;;;;;;;;0.49;80.26;94483.09;10383949;28;2017;-71
2022/01/08 21:26:33;;;;;;;;;;;;;;;0.40;81.23;94466.06;10373286;28;1845;-72
2022/01/08 21:31:36;;;;;;;;;;;;;;;0.31;82.77;94434.97;10365452;28;1878;-72
2022/01/08 21:36:40;;;;;;;;;;;;;;;0.40;82.29;94421.13;10370581;28;1914;-72
2022/01/08 21:41:43;;;;;;;;;;;;;;;0.37;80.56;94407.56;10372520;28;1986;-72
2022/01/08 21:46:46;;;;;;;;;;;;;;;0.28;82.13;94383.41;10372766;28;1777;-72
2022/01/08 21:51:50;;;;;;;;;;;;;;;0.41;82.28;94372.50;10372461;28;1908;-72
2022/01/08 21:56:54;;;;;;;;;;;;;;;0.53;81.71;94361.81;10372569;28;1983;-70
2022/01/08 22:01:57;;;;;;;;;;;;;;;0.49;79.77;94334.25;10373130;28;1878;-71
2022/01/08 22:07:00;;;;;;;;;;;;;;;0.39;81.43;94329.66;10380388;28;2118;-71
2022/01/08 22:12:04;;;;;;;;;;;;;;;0.36;80.65;94308.19;10374984;28;1861;-73
2022/01/08 22:17:08;;;;;;;;;;;;;;;0.29;82.60;94295.16;10372843;28;1918;-71
2022/01/08 22:22:11;;;;;;;;;;;;;;;0.18;80.55;94265.13;10373905;28;1841;-71
2022/01/08 22:27:15;;;;;;;;;;;;;;;0.09;80.67;94255.25;10372063;28;1798;-70
2022/01/08 22:32:18;;;;;;;;;;;;;;;0.10;80.60;94248.94;10372121;28;1845;-71
2022/01/08 22:37:22;;;;;;;;;;;;;;;0.02;79.86;94230.88;10377032;28;1919;-71
2022/01/08 22:42:25;;;;;;;;;;;;;;;-0.09;81.16;94225.44;10365522;28;1809;-71
2022/01/08 22:47:29;;;;;;;;;;;;;;;0.04;81.77;94221.66;10371107;28;1868;-71
2022/01/08 22:52:32;;;;;;;;;;;;;;;-0.15;79.64;94192.09;10371781;28;2068;-71
2022/01/08 22:57:35;;;;;;;;;;;;;;;-0.17;79.11;94170.41;10369590;28;1937;-71
2022/01/08 23:02:39;;;;;;;;;;;;;;;-0.22;81.15;94159.78;10363542;28;1838;-72
2022/01/08 23:07:42;;;;;;;;;;;;;;;-0.22;78.89;94136.03;10375874;28;2011;-72
2022/01/08 23:12:49;;;;;;;;;;;;;;;-0.21;79.09;94124.41;10369169;28;1834;-72
2022/01/08 23:17:52;;;;;;;;;;;;;;;-0.07;79.96;94117.69;10368898;28;1975;-72
2022/01/08 23:22:56;;;;;;;;;;;;;;;0.23;78.07;94103.22;10372373;28;1819;-71
2022/01/08 23:27:59;;;;;;;;;;;;;;;0.30;76.70;94080.00;10370055;28;1787;-70
2022/01/08 23:33:03;;;;;;;;;;;;;;;0.35;77.44;94061.56;10369477;28;1895;-72
2022/01/08 23:38:06;;;;;;;;;;;;;;;0.38;76.89;94045.22;10370154;28;1993;-71
2022/01/08 23:43:09;;;;;;;;;;;;;;;0.40;75.97;94027.25;10369820;28;1815;-71
2022/01/08 23:48:13;;;;;;;;;;;;;;;0.39;76.21;94019.59;10368508;28;1787;-71
2022/01/08 23:53:16;;;;;;;;;;;;;;;0.48;75.87;94018.06;10365593;28;1886;-70
2022/01/08 23:58:20;;;;;;;;;;;;;;;0.48;75.53;94008.28;10369047;28;1914;-71
